Time;durP1;ratioP1;P1;durP2;ratioP2;P2;SDS_P1;SDS_P2;PMS_P1;PMS_P2;Temp;Humidity;BMP_temperature;BMP_pressure;BME280_temperature;BME280_humidity;BME280_pressure;Samples;Min_cycle;Max_cycle;Signal;HPM_P1;HPM_P2
2021/07/06 00:01:25;;;;;;;9.83;9.43;;;19.90;99.90;;;;;;4953788;28;20543;-65
2021/07/06 00:03:53;;;;;;;9.57;9.27;;;19.80;99.90;;;;;;4953870;28;20444;-65
2021/07/06 00:06:20;;;;;;;9.53;9.23;;;19.80;99.90;;;;;;4953923;28;20522;-66
2021/07/06 00:08:48;;;;;;;10.97;10.33;;;19.80;99.90;;;;;;4953930;28;20475;-67
2021/07/06 00:11:16;;;;;;;9.93;9.43;;;19.80;99.90;;;;;;4953290;28;20453;-65
2021/07/06 00:13:52;;;;;;;9.77;9.30;;;19.90;99.90;;;;;;4953398;28;20457;-67
2021/07/06 00:16:19;;;;;;;10.40;9.87;;;19.90;99.90;;;;;;4953524;28;20495;-67
2021/07/06 00:18:46;;;;;;;9.60;9.10;;;19.90;99.90;;;;;;4953633;28;20465;-66
2021/07/06 00:21:13;;;;;;;9.20;8.90;;;19.90;99.90;;;;;;4953486;28;20457;-65
2021/07/06 00:23:43;;;;;;;9.30;9.00;;;19.90;99.90;;;;;;4953375;28;20827;-65
2021/07/06 00:26:11;;;;;;;9.93;9.53;;;19.90;99.90;;;;;;4953199;28;20456;-66
2021/07/06 00:28:38;;;;;;;9.37;9.07;;;19.80;99.90;;;;;;4953416;28;21005;-66
2021/07/06 00:31:04;;;;;;;9.37;9.07;;;19.90;99.90;;;;;;4953176;28;20471;-65
2021/07/06 00:33:31;;;;;;;9.53;9.13;;;19.90;99.90;;;;;;4953420;28;20457;-65
2021/07/06 00:35:59;;;;;;;10.10;9.67;;;19.90;99.90;;;;;;4953457;28;20487;-66
2021/07/06 00:38:26;;;;;;;9.23;8.93;;;20.00;99.90;;;;;;4953415;28;20711;-65
2021/07/06 00:40:53;;;;;;;9.90;9.60;;;20.00;99.90;;;;;;4952956;28;20451;-65
2021/07/06 00:43:21;;;;;;;10.00;9.70;;;20.00;99.90;;;;;;4952791;28;20459;-67
2021/07/06 00:45:48;;;;;;;9.90;9.60;;;20.00;99.90;;;;;;4953368;28;20448;-67
2021/07/06 00:48:15;;;;;;;9.73;9.43;;;20.00;99.90;;;;;;4953177;28;20504;-67
2021/07/06 00:50:41;;;;;;;9.77;9.47;;;20.00;99.90;;;;;;4953198;28;20949;-66
2021/07/06 00:53:08;;;;;;;9.93;9.50;;;20.10;99.90;;;;;;4953111;28;20955;-65
2021/07/06 00:55:35;;;;;;;10.20;9.80;;;20.10;99.90;;;;;;4953082;28;20562;-66
2021/07/06 00:58:02;;;;;;;10.00;9.63;;;20.10;99.90;;;;;;4952781;28;20461;-66
2021/07/06 01:00:31;;;;;;;9.73;9.43;;;20.10;99.90;;;;;;4953166;28;20962;-66
2021/07/06 01:02:59;;;;;;;11.03;10.33;;;20.10;99.90;;;;;;4953092;28;20488;-66
2021/07/06 01:05:26;;;;;;;10.03;9.73;;;20.10;99.90;;;;;;4953166;28;20452;-65
2021/07/06 01:07:54;;;;;;;10.33;9.73;;;20.00;99.90;;;;;;4953106;28;20445;-67
2021/07/06 01:10:21;;;;;;;9.93;9.63;;;20.00;99.90;;;;;;4953256;28;20826;-66
2021/07/06 01:12:48;;;;;;;9.50;9.20;;;19.90;99.90;;;;;;4952663;28;20452;-67
2021/07/06 01:15:18;;;;;;;10.03;9.63;;;19.90;99.90;;;;;;4952874;28;20484;-66
2021/07/06 01:17:46;;;;;;;9.50;9.20;;;19.80;99.90;;;;;;4953283;28;20446;-65
2021/07/06 01:20:15;;;;;;;10.47;9.67;;;19.90;99.90;;;;;;4953193;28;20469;-66
2021/07/06 01:22:45;;;;;;;9.30;9.00;;;19.80;99.90;;;;;;4952923;28;20448;-66
2021/07/06 01:25:14;;;;;;;10.33;9.80;;;19.80;99.90;;;;;;4952967;28;20803;-66
2021/07/06 01:27:41;;;;;;;9.80;9.43;;;19.70;99.90;;;;;;4952752;28;20449;-65
2021/07/06 01:30:10;;;;;;;9.73;9.33;;;19.70;99.90;;;;;;4952839;28;20476;-66
2021/07/06 01:32:39;;;;;;;10.40;9.90;;;19.70;99.90;;;;;;4952656;28;20456;-67
2021/07/06 01:35:07;;;;;;;10.43;9.73;;;19.70;99.90;;;;;;4953061;28;20547;-66
2021/07/06 01:37:34;;;;;;;10.17;9.77;;;19.70;99.90;;;;;;4952973;28;20456;-66
2021/07/06 01:40:03;;;;;;;10.57;10.17;;;19.70;99.90;;;;;;4952644;28;20464;-66
2021/07/06 01:42:30;;;;;;;10.73;10.23;;;19.80;99.90;;;;;;4952532;28;20456;-65
2021/07/06 01:45:08;;;;;;;10.00;9.70;;;19.80;99.90;;;;;;4952357;28;20950;-67
2021/07/06 01:47:37;;;;;;;9.80;9.50;;;19.80;99.90;;;;;;4933723;29;20546;-65
2021/07/06 01:50:05;;;;;;;10.23;9.80;;;19.80;99.90;;;;;;4933624;29;20507;-65
2021/07/06 01:52:32;;;;;;;9.70;9.40;;;19.80;99.90;;;;;;4935367;29;20865;-65
2021/07/06 01:54:59;;;;;;;10.53;9.90;;;19.70;99.90;;;;;;4937046;29;20823;-65
2021/07/06 01:57:27;;;;;;;10.50;9.57;;;19.70;99.90;;;;;;4937058;29;20453;-66
2021/07/06 01:59:53;;;;;;;10.90;10.13;;;19.70;99.90;;;;;;4946546;29;20481;-66
2021/07/06 02:02:20;;;;;;;10.23;9.80;;;19.70;99.90;;;;;;4955858;28;20449;-65
2021/07/06 02:04:49;;;;;;;10.00;9.50;;;19.70;99.90;;;;;;4956157;28;20939;-66
2021/07/06 02:07:16;;;;;;;10.03;9.70;;;19.70;99.90;;;;;;4956077;28;20495;-65
2021/07/06 02:09:43;;;;;;;10.03;9.57;;;19.60;99.90;;;;;;4955876;28;20465;-65
2021/07/06 02:12:10;;;;;;;10.20;9.80;;;19.60;99.90;;;;;;4955826;28;20691;-65
2021/07/06 02:14:38;;;;;;;10.40;9.83;;;19.60;99.90;;;;;;4955582;28;20496;-67
2021/07/06 02:17:05;;;;;;;10.43;9.97;;;19.50;99.90;;;;;;4955690;28;20487;-67
2021/07/06 02:19:31;;;;;;;10.10;9.60;;;19.50;99.90;;;;;;4955517;28;20464;-65
2021/07/06 02:21:58;;;;;;;10.17;9.77;;;19.60;99.90;;;;;;4955241;28;20968;-65
2021/07/06 02:24:25;;;;;;;10.47;10.07;;;19.60;99.90;;;;;;4955638;28;20471;-66
2021/07/06 02:26:53;;;;;;;11.23;10.67;;;19.60;99.90;;;;;;4955687;28;20445;-65
2021/07/06 02:29:20;;;;;;;10.43;10.00;;;19.60;99.90;;;;;;4955525;28;20563;-66
2021/07/06 02:31:48;;;;;;;10.20;9.80;;;19.70;99.90;;;;;;4955100;28;20449;-65
2021/07/06 02:34:14;;;;;;;11.07;10.57;;;19.70;99.90;;;;;;4955556;28;20456;-65
2021/07/06 02:36:41;;;;;;;10.07;9.77;;;19.70;99.90;;;;;;4955318;28;20481;-66
2021/07/06 02:39:08;;;;;;;10.90;10.50;;;19.70;99.90;;;;;;4955383;28;20464;-65
2021/07/06 02:41:35;;;;;;;10.27;9.97;;;19.70;99.90;;;;;;4955120;28;20445;-65
2021/07/06 02:44:01;;;;;;;10.50;10.00;;;19.80;99.90;;;;;;4955325;28;20445;-66
2021/07/06 02:46:28;;;;;;;10.60;10.30;;;19.80;99.90;;;;;;4955019;28;20441;-65
2021/07/06 02:48:56;;;;;;;10.03;9.53;;;19.70;99.90;;;;;;4955204;28;20476;-66
2021/07/06 02:51:23;;;;;;;10.17;9.77;;;19.70;99.90;;;;;;4954894;28;20460;-67
2021/07/06 02:53:50;;;;;;;10.53;10.13;;;19.70;99.90;;;;;;4955145;28;20451;-66
2021/07/06 02:56:16;;;;;;;10.70;10.30;;;19.70;99.90;;;;;;4955205;28;20487;-67
2021/07/06 02:58:43;;;;;;;10.40;10.00;;;19.70;99.90;;;;;;4954886;28;20998;-66
2021/07/06 03:01:10;;;;;;;10.20;9.70;;;19.70;99.90;;;;;;4954398;28;20449;-65
2021/07/06 03:03:37;;;;;;;10.43;10.03;;;19.80;99.90;;;;;;4954536;28;20456;-66
2021/07/06 03:06:05;;;;;;;11.60;10.73;;;19.80;99.90;;;;;;4955023;28;20452;-66
2021/07/06 03:08:33;;;;;;;10.63;10.23;;;19.80;99.90;;;;;;4954752;28;20548;-65
2021/07/06 03:10:59;;;;;;;10.83;10.43;;;19.80;99.90;;;;;;4954889;28;20511;-65
2021/07/06 03:13:26;;;;;;;10.90;10.30;;;19.80;99.90;;;;;;4954734;28;20460;-65
2021/07/06 03:15:53;;;;;;;11.80;11.40;;;19.90;99.90;;;;;;4954621;28;20491;-67
2021/07/06 03:18:20;;;;;;;12.00;11.30;;;19.90;99.90;;;;;;4954164;28;20475;-65
2021/07/06 03:20:48;;;;;;;12.10;11.70;;;19.80;99.90;;;;;;4954336;28;20448;-65
2021/07/06 03:23:16;;;;;;;11.97;11.47;;;19.80;99.90;;;;;;4954281;28;20891;-66
2021/07/06 03:25:43;;;;;;;12.17;11.70;;;19.80;99.90;;;;;;4954655;28;20849;-67
2021/07/06 03:28:11;;;;;;;12.57;12.07;;;19.70;99.90;;;;;;4954472;28;20463;-67
2021/07/06 03:30:39;;;;;;;13.40;12.80;;;19.70;99.90;;;;;;4954522;28;20821;-65
2021/07/06 03:33:08;;;;;;;12.97;12.30;;;19.70;99.90;;;;;;4953992;28;20453;-66
2021/07/06 03:35:35;;;;;;;12.93;12.43;;;19.70;99.90;;;;;;4954293;28;20446;-66
2021/07/06 03:38:02;;;;;;;12.73;12.13;;;19.70;99.90;;;;;;4954213;28;20449;-66
2021/07/06 03:40:31;;;;;;;12.50;12.00;;;19.70;99.90;;;;;;4954094;28;20449;-66
2021/07/06 03:42:58;;;;;;;13.13;12.43;;;19.70;99.90;;;;;;4953754;28;20452;-66
2021/07/06 03:45:25;;;;;;;12.03;11.67;;;19.70;99.90;;;;;;4954223;28;20449;-66
2021/07/06 03:47:52;;;;;;;12.80;12.30;;;19.70;99.90;;;;;;4954181;28;20453;-66
2021/07/06 03:50:21;;;;;;;12.50;12.10;;;19.70;99.90;;;;;;4954021;28;20469;-65
2021/07/06 03:52:48;;;;;;;13.30;12.70;;;19.70;99.90;;;;;;4953875;28;20817;-65
2021/07/06 03:55:15;;;;;;;14.00;12.70;;;19.90;99.90;;;;;;4954045;28;20449;-65
2021/07/06 03:57:43;;;;;;;13.30;12.63;;;20.00;99.90;;;;;;4953867;28;21021;-65
2021/07/06 04:00:12;;;;;;;13.60;13.10;;;20.00;99.90;;;;;;4953509;28;20487;-66
2021/07/06 04:02:40;;;;;;;13.50;12.90;;;20.10;99.90;;;;;;4953973;28;20449;-66
2021/07/06 04:05:09;;;;;;;13.83;13.07;;;20.10;99.90;;;;;;4953910;28;20449;-66
2021/07/06 04:07:37;;;;;;;14.00;13.30;;;20.10;99.90;;;;;;4953520;28;20456;-66
2021/07/06 04:10:04;;;;;;;14.03;13.43;;;20.10;99.90;;;;;;4953703;28;20472;-66
2021/07/06 04:12:31;;;;;;;14.10;13.20;;;20.20;99.90;;;;;;4953597;28;20459;-66
2021/07/06 04:14:59;;;;;;;13.20;12.57;;;20.30;99.90;;;;;;4953043;28;20455;-67
2021/07/06 04:17:26;;;;;;;13.67;13.17;;;20.30;99.90;;;;;;4953347;28;20619;-67
2021/07/06 04:19:54;;;;;;;13.60;13.00;;;20.30;99.90;;;;;;4953101;28;20464;-65
2021/07/06 04:22:20;;;;;;;13.90;13.40;;;20.30;99.90;;;;;;4953278;28;20934;-66
2021/07/06 04:24:47;;;;;;;13.90;13.10;;;20.30;99.90;;;;;;4953618;28;20445;-65
2021/07/06 04:27:14;;;;;;;15.03;14.07;;;20.40;99.90;;;;;;4952921;28;20444;-65
2021/07/06 04:29:41;;;;;;;14.10;13.53;;;20.50;99.90;;;;;;4952750;28;20473;-65
2021/07/06 04:32:09;;;;;;;15.07;14.57;;;20.40;99.90;;;;;;4952638;28;20815;-64
2021/07/06 04:34:35;;;;;;;14.17;13.67;;;20.30;99.90;;;;;;4951520;28;20938;-64
2021/07/06 04:37:03;;;;;;;14.40;13.70;;;20.20;99.90;;;;;;4951522;28;20506;-65
2021/07/06 04:39:30;;;;;;;14.30;13.60;;;20.10;99.90;;;;;;4952559;28;20830;-66
2021/07/06 04:41:57;;;;;;;14.60;14.10;;;20.10;99.90;;;;;;4952189;28;20859;-65
2021/07/06 04:44:23;;;;;;;14.53;13.83;;;20.10;99.90;;;;;;4952619;28;20867;-65
2021/07/06 04:46:50;;;;;;;14.50;14.00;;;20.00;99.90;;;;;;4952612;28;20441;-66
2021/07/06 04:49:18;;;;;;;14.40;13.80;;;20.00;99.90;;;;;;4952611;28;20464;-65
2021/07/06 04:51:45;;;;;;;14.40;13.70;;;20.00;99.90;;;;;;4953176;28;20500;-64
2021/07/06 04:54:11;;;;;;;14.60;14.00;;;20.00;99.90;;;;;;4953346;28;20447;-66
2021/07/06 04:56:38;;;;;;;14.87;13.97;;;20.00;99.90;;;;;;4953206;28;20510;-65
2021/07/06 04:59:05;;;;;;;15.23;14.37;;;19.90;99.90;;;;;;4953190;28;20480;-65
2021/07/06 05:01:31;;;;;;;14.80;14.27;;;19.80;99.90;;;;;;4953081;28;20448;-65
2021/07/06 05:03:59;;;;;;;14.23;13.73;;;19.80;99.90;;;;;;4953198;28;20448;-65
2021/07/06 05:06:27;;;;;;;14.50;14.00;;;19.70;99.90;;;;;;4953271;28;20503;-65
2021/07/06 05:08:54;;;;;;;14.57;13.90;;;19.70;99.90;;;;;;4953066;28;21009;-64
2021/07/06 05:11:20;;;;;;;15.27;14.57;;;19.70;99.90;;;;;;4953117;28;20447;-65
2021/07/06 05:13:47;;;;;;;14.17;13.67;;;19.60;99.90;;;;;;4953158;28;20444;-65
2021/07/06 05:16:14;;;;;;;15.83;15.10;;;19.60;99.90;;;;;;4953215;28;20484;-65
2021/07/06 05:18:41;;;;;;;14.90;14.13;;;19.60;99.90;;;;;;4953190;28;20476;-65
2021/07/06 05:21:07;;;;;;;13.60;13.07;;;19.60;99.90;;;;;;4953061;28;20456;-65
2021/07/06 05:23:36;;;;;;;14.83;14.13;;;19.50;99.90;;;;;;4953172;28;20460;-66
2021/07/06 05:26:02;;;;;;;14.63;13.87;;;19.50;99.90;;;;;;4954359;28;20602;-66
2021/07/06 05:28:29;;;;;;;13.83;13.33;;;19.50;99.90;;;;;;4956728;28;20515;-66
2021/07/06 05:30:56;;;;;;;13.10;12.50;;;19.40;99.90;;;;;;4956874;28;20445;-66
2021/07/06 05:33:23;;;;;;;12.90;12.10;;;19.40;99.90;;;;;;4956622;28;20460;-66
2021/07/06 05:35:49;;;;;;;13.87;12.80;;;19.40;99.90;;;;;;4956701;28;20453;-65
2021/07/06 05:38:16;;;;;;;13.20;12.30;;;19.40;99.90;;;;;;4956581;28;20488;-65
2021/07/06 05:40:45;;;;;;;12.53;12.00;;;19.40;99.90;;;;;;4956667;28;20448;-66
2021/07/06 05:43:12;;;;;;;12.37;11.87;;;19.40;99.90;;;;;;4956467;28;20811;-66
2021/07/06 05:45:38;;;;;;;13.63;12.80;;;19.40;99.90;;;;;;4956586;28;20456;-65
2021/07/06 05:48:05;;;;;;;12.80;12.33;;;19.40;99.90;;;;;;4956508;28;20472;-65
2021/07/06 05:50:32;;;;;;;12.23;11.73;;;19.30;99.90;;;;;;4956430;28;20451;-65
2021/07/06 05:52:59;;;;;;;12.70;12.20;;;19.30;99.90;;;;;;4956375;28;20445;-65
2021/07/06 05:55:25;;;;;;;12.40;11.90;;;19.20;99.90;;;;;;4956345;28;20950;-65
2021/07/06 05:57:53;;;;;;;13.20;12.27;;;19.20;99.90;;;;;;4956307;28;20484;-66
2021/07/06 06:00:20;;;;;;;11.20;10.70;;;19.20;99.90;;;;;;5046458;22;20496;-68
2021/07/06 06:02:47;;;;;;;11.67;11.13;;;19.10;99.90;;;;;;5034051;28;20445;-67
2021/07/06 06:05:14;;;;;;;11.47;11.07;;;19.10;99.90;;;;;;5034173;28;20506;-68
2021/07/06 06:07:42;;;;;;;12.30;11.27;;;19.00;99.90;;;;;;5034328;28;20461;-67
2021/07/06 06:10:12;;;;;;;11.73;11.10;;;19.00;99.90;;;;;;5034188;28;20467;-68
2021/07/06 06:12:39;;;;;;;11.60;10.40;;;19.00;99.90;;;;;;5034293;28;20445;-68
2021/07/06 06:15:09;;;;;;;14.80;10.60;;;19.00;99.90;;;;;;5034207;28;20445;-68
2021/07/06 06:17:36;;;;;;;10.77;10.13;;;19.00;99.90;;;;;;5034111;28;20854;-68
2021/07/06 06:20:03;;;;;;;12.40;11.20;;;19.00;99.90;;;;;;5034011;28;20472;-68
2021/07/06 06:22:30;;;;;;;11.07;10.47;;;19.00;99.90;;;;;;5033821;28;20457;-68
2021/07/06 06:24:57;;;;;;;10.97;10.43;;;19.00;99.90;;;;;;5033928;28;20445;-68
2021/07/06 06:27:23;;;;;;;10.53;10.07;;;19.00;99.90;;;;;;5034034;28;20444;-68
2021/07/06 06:29:50;;;;;;;11.93;11.17;;;19.10;99.90;;;;;;5033952;28;20469;-68
2021/07/06 06:32:18;;;;;;;10.73;10.03;;;19.10;99.90;;;;;;5033767;28;20456;-68
2021/07/06 06:34:45;;;;;;;10.00;9.60;;;19.20;99.90;;;;;;5033828;28;20507;-68
2021/07/06 06:37:12;;;;;;;10.13;9.57;;;19.10;99.90;;;;;;5033047;28;20559;-68
2021/07/06 06:39:40;;;;;;;10.37;9.87;;;19.10;99.90;;;;;;5033643;28;20461;-67
2021/07/06 06:42:07;;;;;;;9.83;9.30;;;19.10;99.90;;;;;;5033457;28;20481;-68
2021/07/06 06:44:34;;;;;;;10.17;9.60;;;19.20;99.90;;;;;;5033790;28;20522;-68
2021/07/06 06:47:01;;;;;;;10.90;10.00;;;19.10;99.90;;;;;;5033511;28;20788;-68
2021/07/06 06:49:29;;;;;;;10.13;9.63;;;19.10;99.90;;;;;;5033495;28;20464;-68
2021/07/06 06:51:56;;;;;;;10.73;10.13;;;19.10;99.90;;;;;;5033293;28;20437;-67
2021/07/06 06:54:22;;;;;;;10.10;9.50;;;19.10;99.90;;;;;;5033448;28;20946;-68
2021/07/06 06:56:49;;;;;;;10.43;9.93;;;19.10;99.90;;;;;;5033408;28;20507;-67
2021/07/06 06:59:16;;;;;;;9.93;9.53;;;19.10;99.90;;;;;;5033170;28;20495;-68
2021/07/06 07:01:44;;;;;;;9.93;9.43;;;19.20;99.90;;;;;;5033181;28;20452;-68
2021/07/06 07:04:11;;;;;;;9.83;9.43;;;19.30;99.90;;;;;;5033203;28;20448;-68
2021/07/06 07:06:39;;;;;;;10.63;10.13;;;19.40;99.90;;;;;;5033151;28;20808;-68
2021/07/06 07:09:08;;;;;;;10.47;10.07;;;19.50;99.90;;;;;;5033042;28;20989;-67
2021/07/06 07:11:35;;;;;;;10.77;9.90;;;19.50;99.90;;;;;;5032960;28;20484;-68
2021/07/06 07:14:01;;;;;;;11.17;10.70;;;19.60;99.90;;;;;;5033140;28;20862;-67
2021/07/06 07:16:28;;;;;;;11.10;10.70;;;19.70;99.90;;;;;;5032960;28;20445;-68
2021/07/06 07:18:55;;;;;;;10.70;10.30;;;19.80;99.90;;;;;;5032932;28;20472;-68
2021/07/06 07:21:22;;;;;;;12.97;12.37;;;19.80;99.90;;;;;;5032730;28;20445;-69
2021/07/06 07:23:50;;;;;;;11.70;11.30;;;19.90;99.90;;;;;;5032831;28;20449;-68
2021/07/06 07:26:16;;;;;;;12.70;12.00;;;19.90;99.90;;;;;;5032836;28;20449;-68
2021/07/06 07:28:43;;;;;;;11.50;11.10;;;20.00;99.90;;;;;;5032649;28;20469;-68
2021/07/06 07:31:10;;;;;;;12.50;11.93;;;20.00;99.90;;;;;;5032503;28;20519;-68
2021/07/06 07:33:36;;;;;;;12.60;12.10;;;20.00;99.90;;;;;;5032658;28;20441;-68
2021/07/06 07:36:03;;;;;;;12.40;11.90;;;20.00;99.90;;;;;;5032709;28;20491;-68
2021/07/06 07:38:30;;;;;;;12.10;11.70;;;20.10;99.90;;;;;;5032480;28;20480;-68
2021/07/06 07:40:58;;;;;;;13.00;12.47;;;20.10;99.90;;;;;;5032563;28;20448;-69
2021/07/06 07:43:25;;;;;;;12.70;12.30;;;20.20;99.90;;;;;;5032333;28;21082;-68
2021/07/06 07:45:51;;;;;;;12.93;12.43;;;20.30;99.90;;;;;;5032385;28;20449;-68
2021/07/06 07:48:18;;;;;;;12.77;12.37;;;20.40;99.90;;;;;;5032288;28;20441;-68
2021/07/06 07:50:45;;;;;;;14.40;13.90;;;20.40;99.90;;;;;;5031432;28;20930;-68
2021/07/06 07:53:11;;;;;;;13.40;12.90;;;20.50;99.90;;;;;;5031976;28;20956;-67
2021/07/06 07:55:38;;;;;;;12.80;12.40;;;20.50;99.90;;;;;;5032349;28;20448;-68
2021/07/06 07:58:06;;;;;;;13.83;13.23;;;20.40;99.90;;;;;;5032193;28;20480;-68
2021/07/06 08:00:33;;;;;;;12.70;12.30;;;20.40;99.90;;;;;;5032002;28;20473;-68
2021/07/06 08:02:59;;;;;;;14.80;14.07;;;20.50;99.90;;;;;;5031917;28;20449;-68
2021/07/06 08:05:26;;;;;;;13.97;13.47;;;20.50;99.90;;;;;;5032239;28;20449;-68
2021/07/06 08:07:53;;;;;;;14.17;13.47;;;20.60;99.90;;;;;;5032175;28;20516;-68
2021/07/06 08:10:20;;;;;;;14.13;13.53;;;20.70;99.90;;;;;;5031948;28;20463;-68
2021/07/06 08:12:46;;;;;;;13.43;12.90;;;20.80;99.90;;;;;;5031807;28;20445;-68
2021/07/06 08:15:15;;;;;;;14.50;14.00;;;21.00;99.90;;;;;;5031851;28;20811;-68
2021/07/06 08:17:42;;;;;;;14.57;13.97;;;21.20;99.90;;;;;;5031820;28;20476;-68
2021/07/06 08:20:09;;;;;;;15.13;14.53;;;21.50;99.90;;;;;;5031791;28;20461;-68
2021/07/06 08:22:36;;;;;;;14.70;14.20;;;21.70;99.90;;;;;;5031513;28;20444;-68
2021/07/06 08:25:04;;;;;;;14.90;14.40;;;21.90;99.90;;;;;;5031765;28;20799;-68
2021/07/06 08:27:30;;;;;;;15.60;14.90;;;22.00;99.90;;;;;;5031787;28;20437;-68
2021/07/06 08:29:57;;;;;;;15.57;14.87;;;22.00;99.90;;;;;;5031594;28;20468;-68
2021/07/06 08:32:25;;;;;;;15.33;14.73;;;22.10;99.90;;;;;;5031432;28;20524;-68
2021/07/06 08:34:52;;;;;;;16.00;15.40;;;22.00;99.90;;;;;;5031848;28;20476;-69
2021/07/06 08:37:19;;;;;;;15.67;14.77;;;22.00;99.90;;;;;;5031528;28;20851;-68
2021/07/06 08:39:45;;;;;;;15.50;14.90;;;21.90;99.90;;;;;;5031605;28;20865;-69
2021/07/06 08:42:12;;;;;;;15.40;14.90;;;21.90;99.90;;;;;;5031327;28;20456;-68
2021/07/06 08:44:40;;;;;;;15.80;15.10;;;21.90;99.90;;;;;;5031539;28;20445;-69
2021/07/06 08:47:07;;;;;;;15.37;14.77;;;21.90;99.90;;;;;;5031494;28;20923;-68
2021/07/06 08:49:38;;;;;;;15.20;14.60;;;22.10;99.90;;;;;;5031402;28;20581;-68
2021/07/06 08:52:05;;;;;;;16.47;15.87;;;22.30;99.90;;;;;;5031409;28;20448;-69
2021/07/06 08:54:32;;;;;;;15.83;15.13;;;22.50;99.90;;;;;;5031613;28;20706;-69
2021/07/06 08:56:59;;;;;;;16.50;15.80;;;22.40;99.90;;;;;;5031412;28;20456;-68
2021/07/06 08:59:25;;;;;;;16.00;15.40;;;22.50;99.90;;;;;;5031231;28;20481;-69
2021/07/06 09:01:52;;;;;;;17.27;16.07;;;22.50;99.90;;;;;;5033837;28;20445;-68
2021/07/06 09:04:19;;;;;;;17.00;16.40;;;22.60;99.90;;;;;;5035344;28;20445;-68
2021/07/06 09:06:57;;;;;;;15.97;15.17;;;22.60;99.90;;;;;;5035533;28;20448;-68
2021/07/06 09:09:25;;;;;;;16.23;15.53;;;22.70;99.90;;;;;;5035357;28;20461;-68
2021/07/06 09:11:53;;;;;;;16.70;16.10;;;23.00;99.90;;;;;;5035127;28;20444;-68
2021/07/06 09:14:23;;;;;;;16.57;15.87;;;23.00;99.90;;;;;;5035209;28;20449;-69
2021/07/06 09:16:50;;;;;;;15.90;15.30;;;23.00;99.90;;;;;;5035298;28;20452;-68
2021/07/06 09:19:19;;;;;;;16.50;15.67;;;22.90;99.90;;;;;;5035014;28;20977;-69
2021/07/06 09:21:46;;;;;;;16.83;16.13;;;23.00;99.90;;;;;;5034911;28;20445;-69
2021/07/06 09:24:24;;;;;;;17.10;16.40;;;23.00;99.90;;;;;;5035138;28;20452;-68
2021/07/06 09:26:51;;;;;;;16.37;15.77;;;23.00;99.90;;;;;;5035167;28;20451;-69
2021/07/06 09:29:24;;;;;;;16.67;16.07;;;23.00;99.90;;;;;;5034849;28;20457;-69
2021/07/06 09:31:51;;;;;;;17.40;16.20;;;23.10;99.90;;;;;;5034834;28;20548;-68
2021/07/06 09:34:18;;;;;;;24.20;18.63;;;23.20;99.90;;;;;;5035024;28;20534;-69
2021/07/06 09:36:46;;;;;;;17.20;16.43;;;23.40;99.90;;;;;;5035012;28;20449;-69
2021/07/06 09:39:15;;;;;;;17.57;16.87;;;23.60;99.90;;;;;;5034678;28;20576;-68
2021/07/06 09:41:53;;;;;;;16.57;15.97;;;23.80;99.90;;;;;;5034630;28;20814;-69
2021/07/06 09:44:22;;;;;;;17.57;16.87;;;23.80;99.90;;;;;;5034787;28;20445;-68
2021/07/06 09:46:52;;;;;;;17.20;16.60;;;23.70;99.90;;;;;;5034835;28;20449;-67
2021/07/06 09:49:20;;;;;;;17.90;17.20;;;23.80;99.90;;;;;;5034611;28;20465;-68
2021/07/06 09:51:48;;;;;;;17.87;16.87;;;23.80;99.90;;;;;;5034526;28;20449;-69
2021/07/06 09:54:28;;;;;;;16.83;16.00;;;23.80;99.90;;;;;;5034513;28;20440;-67
2021/07/06 09:57:06;;;;;;;18.20;17.40;;;23.50;99.90;;;;;;5034491;28;20444;-68
2021/07/06 09:59:33;;;;;;;17.27;16.57;;;23.40;99.90;;;;;;5034151;28;20524;-69
2021/07/06 10:02:03;;;;;;;17.67;16.80;;;23.70;99.90;;;;;;5033998;28;20448;-68
2021/07/06 10:04:30;;;;;;;17.03;16.23;;;23.90;99.90;;;;;;5044557;28;20459;-68
2021/07/06 10:07:00;;;;;;;17.83;16.93;;;24.30;99.90;;;;;;5053521;28;20557;-68
2021/07/06 10:09:27;;;;;;;17.53;16.90;;;24.50;99.90;;;;;;5054203;28;20518;-68
2021/07/06 10:11:54;;;;;;;17.80;17.10;;;24.60;99.90;;;;;;5044224;28;20449;-68
2021/07/06 10:14:24;;;;;;;18.67;17.97;;;24.50;99.90;;;;;;5032705;28;20441;-68
2021/07/06 10:16:51;;;;;;;17.70;17.10;;;24.30;99.90;;;;;;5033310;28;20953;-68
2021/07/06 10:19:19;;;;;;;18.20;17.53;;;23.80;99.90;;;;;;5033867;28;20923;-69
2021/07/06 10:21:46;;;;;;;17.57;16.90;;;23.70;99.90;;;;;;5033801;28;20460;-67
2021/07/06 10:24:15;;;;;;;17.53;16.93;;;23.80;99.90;;;;;;5033989;28;20441;-68
2021/07/06 10:26:43;;;;;;;18.43;17.77;;;23.80;99.90;;;;;;5034006;28;20822;-67
2021/07/06 10:29:10;;;;;;;17.30;16.70;;;24.10;99.90;;;;;;5033885;28;20806;-67
2021/07/06 10:31:44;;;;;;;18.47;17.77;;;24.50;99.90;;;;;;5033641;28;20447;-68
2021/07/06 10:34:22;;;;;;;19.03;17.97;;;24.90;99.60;;;;;;5033910;28;20444;-68
2021/07/06 10:36:49;;;;;;;18.73;17.93;;;25.60;98.50;;;;;;5033745;28;20448;-67
2021/07/06 10:39:18;;;;;;;18.43;17.83;;;25.80;97.20;;;;;;5033525;28;21032;-68
2021/07/06 10:41:53;;;;;;;18.80;18.10;;;26.20;94.60;;;;;;5033538;28;20446;-68
2021/07/06 10:44:30;;;;;;;18.67;18.07;;;25.70;89.70;;;;;;5033656;28;20467;-68
2021/07/06 10:46:58;;;;;;;18.57;17.97;;;25.80;89.20;;;;;;5033623;28;20817;-69
2021/07/06 10:49:32;;;;;;;18.40;17.80;;;26.10;86.60;;;;;;5033488;28;20526;-69
2021/07/06 10:52:01;;;;;;;18.57;17.97;;;26.20;82.20;;;;;;5033356;28;20545;-68
2021/07/06 10:54:33;;;;;;;19.93;19.00;;;26.10;80.30;;;;;;5033478;28;20444;-68
2021/07/06 10:57:13;;;;;;;18.73;18.03;;;26.20;80.90;;;;;;5033570;28;20452;-68
2021/07/06 10:59:40;;;;;;;18.40;17.80;;;26.80;77.70;;;;;;5033138;28;20495;-67
2021/07/06 11:02:11;;;;;;;19.17;18.47;;;27.00;71.80;;;;;;5033036;28;20949;-68
2021/07/06 11:05:02;;;;;;;18.87;17.80;;;27.00;71.20;;;;;;5033215;28;20472;-69
2021/07/06 11:10:39;;;;;;;19.23;18.53;;;27.80;68.50;;;;;;5032843;28;20880;-68
2021/07/06 11:13:21;;;;;;;19.00;18.40;;;27.90;62.80;;;;;;5032933;28;20441;-68
2021/07/06 11:15:48;;;;;;;18.90;18.30;;;27.30;62.40;;;;;;5033298;28;20476;-68
2021/07/06 11:18:16;;;;;;;19.67;18.97;;;27.00;64.30;;;;;;5033030;28;20484;-69
2021/07/06 11:20:45;;;;;;;19.33;18.60;;;27.40;64.80;;;;;;5033107;28;20449;-69
2021/07/06 11:23:17;;;;;;;19.90;19.17;;;28.10;59.90;;;;;;5032663;28;20445;-68
2021/07/06 11:25:46;;;;;;;20.80;20.00;;;28.30;59.80;;;;;;5033050;28;20445;-68
2021/07/06 11:28:15;;;;;;;20.40;19.70;;;28.90;58.10;;;;;;5032852;28;20459;-68
2021/07/06 11:30:45;;;;;;;19.33;18.73;;;29.40;55.90;;;;;;5032633;28;20881;-68
2021/07/06 11:33:13;;;;;;;20.10;19.47;;;29.20;54.30;;;;;;5032640;28;20451;-68
2021/07/06 11:35:42;;;;;;;19.20;18.60;;;29.00;52.80;;;;;;5032725;28;20471;-68
2021/07/06 11:38:11;;;;;;;20.30;19.50;;;29.20;52.70;;;;;;5032645;28;20981;-68
2021/07/06 11:40:39;;;;;;;20.00;19.20;;;30.60;51.90;;;;;;5032450;28;20472;-69
2021/07/06 11:43:06;;;;;;;20.77;20.07;;;31.20;50.00;;;;;;5032234;28;20444;-69
2021/07/06 11:45:33;;;;;;;20.77;19.97;;;31.40;46.60;;;;;;5032294;28;20476;-68
2021/07/06 11:48:05;;;;;;;20.13;19.30;;;32.00;45.70;;;;;;5032422;28;20461;-69
2021/07/06 11:50:32;;;;;;;20.60;19.80;;;34.70;43.90;;;;;;5032285;28;20726;-68
2021/07/06 11:53:00;;;;;;;20.77;20.07;;;33.10;42.10;;;;;;5032032;28;20197;-68
2021/07/06 11:55:27;;;;;;;20.93;20.13;;;33.20;42.60;;;;;;5032390;28;20198;-68
2021/07/06 11:57:55;;;;;;;20.40;19.70;;;34.50;42.50;;;;;;5032176;28;20205;-66
2021/07/06 12:00:24;;;;;;;20.80;20.02;;;36.60;39.00;;;;;;5049305;23;20230;-67
2021/07/06 12:02:51;;;;;;;19.63;19.02;;;39.20;37.20;;;;;;5020366;28;20214;-66
2021/07/06 12:05:19;;;;;;;19.98;19.25;;;38.30;31.80;;;;;;5012443;28;20209;-67
2021/07/06 12:07:46;;;;;;;20.85;20.02;;;36.50;33.80;;;;;;5012457;28;20210;-68
2021/07/06 12:10:14;;;;;;;21.05;20.25;;;39.10;32.70;;;;;;5012274;28;20226;-67
2021/07/06 12:12:41;;;;;;;20.15;19.52;;;39.40;30.50;;;;;;5012009;28;20576;-66
2021/07/06 12:15:09;;;;;;;20.30;19.50;;;38.30;31.00;;;;;;5012388;28;20579;-66
2021/07/06 12:17:36;;;;;;;20.50;19.63;;;38.50;29.50;;;;;;5012314;28;20203;-67
2021/07/06 12:20:05;;;;;;;20.23;19.42;;;39.80;30.00;;;;;;5011983;28;20241;-67
2021/07/06 12:22:32;;;;;;;21.05;20.15;;;41.40;28.60;;;;;;5011995;28;20203;-67
2021/07/06 12:24:59;;;;;;;21.90;20.70;;;43.60;27.00;;;;;;5012067;28;20226;-67
2021/07/06 12:27:27;;;;;;;21.88;20.63;;;44.30;26.10;;;;;;5012071;28;20292;-68
2021/07/06 12:29:57;;;;;;;21.60;20.60;;;45.30;25.20;;;;;;5011890;28;20782;-67
2021/07/06 12:32:24;;;;;;;21.10;20.40;;;43.40;24.50;;;;;;5011810;28;20667;-67
2021/07/06 12:34:56;;;;;;;21.00;20.00;;;40.90;26.30;;;;;;5011862;28;20202;-66
2021/07/06 12:37:24;;;;;;;20.77;19.98;;;38.90;26.80;;;;;;5011568;28;20211;-67